sensor_id;sensor_type;location;lat;lon;timestamp;P1;durP1;ratioP1;P2;durP2;ratioP2
20476;SDS011;10397;50.948;11.092;2023-06-26T00:02:18;3.33;;;2.25;;
20476;SDS011;10397;50.948;11.092;2023-06-26T00:04:49;2.55;;;2.35;;
20476;SDS011;10397;50.948;11.092;2023-06-26T00:07:21;2.70;;;2.50;;
20476;SDS011;10397;50.948;11.092;2023-06-26T00:09:53;3.33;;;2.58;;
20476;SDS011;10397;50.948;11.092;2023-06-26T00:12:24;2.50;;;2.10;;
20476;SDS011;10397;50.948;11.092;2023-06-26T00:14:56;5.95;;;2.05;;
20476;SDS011;10397;50.948;11.092;2023-06-26T00:17:27;2.20;;;2.00;;
20476;SDS011;10397;50.948;11.092;2023-06-26T00:19:58;2.98;;;2.67;;
20476;SDS011;10397;50.948;11.092;2023-06-26T00:22:29;2.83;;;2.53;;
20476;SDS011;10397;50.948;11.092;2023-06-26T00:25:01;2.93;;;2.33;;
20476;SDS011;10397;50.948;11.092;2023-06-26T00:27:32;3.85;;;2.27;;
20476;SDS011;10397;50.948;11.092;2023-06-26T00:30:03;2.90;;;2.40;;
20476;SDS011;10397;50.948;11.092;2023-06-26T00:32:34;2.83;;;2.52;;
20476;SDS011;10397;50.948;11.092;2023-06-26T00:35:06;2.33;;;2.02;;
20476;SDS011;10397;50.948;11.092;2023-06-26T00:37:37;2.95;;;2.65;;
20476;SDS011;10397;50.948;11.092;2023-06-26T00:40:09;2.42;;;2.22;;
20476;SDS011;10397;50.948;11.092;2023-06-26T00:42:41;2.77;;;2.50;;
20476;SDS011;10397;50.948;11.092;2023-06-26T00:45:12;2.80;;;2.50;;
20476;SDS011;10397;50.948;11.092;2023-06-26T00:47:43;2.67;;;2.37;;
20476;SDS011;10397;50.948;11.092;2023-06-26T00:50:15;4.57;;;2.57;;
20476;SDS011;10397;50.948;11.092;2023-06-26T00:52:46;4.10;;;2.12;;
20476;SDS011;10397;50.948;11.092;2023-06-26T00:55:17;3.85;;;3.00;;
20476;SDS011;10397;50.948;11.092;2023-06-26T00:57:49;5.35;;;2.65;;
20476;SDS011;10397;50.948;11.092;2023-06-26T01:00:20;2.95;;;2.62;;
20476;SDS011;10397;50.948;11.092;2023-06-26T01:02:50;2.67;;;2.47;;
20476;SDS011;10397;50.948;11.092;2023-06-26T01:05:21;4.62;;;2.50;;
20476;SDS011;10397;50.948;11.092;2023-06-26T01:07:52;3.03;;;2.57;;
20476;SDS011;10397;50.948;11.092;2023-06-26T01:10:24;2.92;;;2.45;;
20476;SDS011;10397;50.948;11.092;2023-06-26T01:12:55;4.55;;;2.30;;
20476;SDS011;10397;50.948;11.092;2023-06-26T01:15:26;2.87;;;2.33;;
20476;SDS011;10397;50.948;11.092;2023-06-26T01:17:58;2.80;;;2.60;;
20476;SDS011;10397;50.948;11.092;2023-06-26T01:20:32;2.77;;;2.20;;
20476;SDS011;10397;50.948;11.092;2023-06-26T01:23:15;3.90;;;2.60;;
20476;SDS011;10397;50.948;11.092;2023-06-26T01:28:49;5.90;;;3.03;;
20476;SDS011;10397;50.948;11.092;2023-06-26T01:31:20;3.30;;;2.98;;
20476;SDS011;10397;50.948;11.092;2023-06-26T01:33:51;3.05;;;2.75;;
20476;SDS011;10397;50.948;11.092;2023-06-26T01:36:22;3.77;;;3.47;;
20476;SDS011;10397;50.948;11.092;2023-06-26T01:38:54;4.03;;;2.85;;
20476;SDS011;10397;50.948;11.092;2023-06-26T01:41:25;3.05;;;2.75;;
20476;SDS011;10397;50.948;11.092;2023-06-26T01:46:39;3.17;;;2.87;;
20476;SDS011;10397;50.948;11.092;2023-06-26T01:49:15;3.40;;;3.10;;
20476;SDS011;10397;50.948;11.092;2023-06-26T01:51:58;3.83;;;2.77;;
20476;SDS011;10397;50.948;11.092;2023-06-26T01:54:33;3.33;;;2.87;;
20476;SDS011;10397;50.948;11.092;2023-06-26T01:57:03;3.42;;;3.00;;
20476;SDS011;10397;50.948;11.092;2023-06-26T01:59:33;3.27;;;2.90;;
20476;SDS011;10397;50.948;11.092;2023-06-26T02:02:06;3.08;;;2.77;;
20476;SDS011;10397;50.948;11.092;2023-06-26T02:04:35;3.30;;;2.73;;
20476;SDS011;10397;50.948;11.092;2023-06-26T02:07:06;3.57;;;3.27;;
20476;SDS011;10397;50.948;11.092;2023-06-26T02:09:38;3.67;;;3.37;;
20476;SDS011;10397;50.948;11.092;2023-06-26T02:12:10;3.15;;;2.77;;
20476;SDS011;10397;50.948;11.092;2023-06-26T02:14:41;4.83;;;2.80;;
20476;SDS011;10397;50.948;11.092;2023-06-26T02:17:12;3.60;;;3.30;;
20476;SDS011;10397;50.948;11.092;2023-06-26T02:19:44;3.90;;;3.00;;
20476;SDS011;10397;50.948;11.092;2023-06-26T02:22:16;3.75;;;3.25;;
20476;SDS011;10397;50.948;11.092;2023-06-26T02:24:47;5.47;;;3.40;;
20476;SDS011;10397;50.948;11.092;2023-06-26T02:27:19;3.35;;;3.05;;
20476;SDS011;10397;50.948;11.092;2023-06-26T02:29:50;4.08;;;3.67;;
20476;SDS011;10397;50.948;11.092;2023-06-26T02:32:22;3.58;;;3.27;;
20476;SDS011;10397;50.948;11.092;2023-06-26T02:34:53;3.50;;;3.20;;
20476;SDS011;10397;50.948;11.092;2023-06-26T02:37:24;3.60;;;3.30;;
20476;SDS011;10397;50.948;11.092;2023-06-26T02:39:56;3.50;;;3.17;;
20476;SDS011;10397;50.948;11.092;2023-06-26T02:42:27;4.40;;;3.00;;
20476;SDS011;10397;50.948;11.092;2023-06-26T02:44:58;3.17;;;2.80;;
20476;SDS011;10397;50.948;11.092;2023-06-26T02:47:30;3.27;;;2.97;;
20476;SDS011;10397;50.948;11.092;2023-06-26T02:50:01;3.67;;;3.33;;
20476;SDS011;10397;50.948;11.092;2023-06-26T02:52:32;3.70;;;3.27;;
20476;SDS011;10397;50.948;11.092;2023-06-26T02:55:04;3.47;;;3.17;;
20476;SDS011;10397;50.948;11.092;2023-06-26T02:57:35;3.77;;;2.85;;
20476;SDS011;10397;50.948;11.092;2023-06-26T03:00:07;3.85;;;3.45;;
20476;SDS011;10397;50.948;11.092;2023-06-26T03:02:37;4.67;;;3.77;;
20476;SDS011;10397;50.948;11.092;2023-06-26T03:05:09;3.57;;;3.27;;
20476;SDS011;10397;50.948;11.092;2023-06-26T03:07:40;6.10;;;3.70;;
20476;SDS011;10397;50.948;11.092;2023-06-26T03:10:11;3.65;;;3.35;;
20476;SDS011;10397;50.948;11.092;2023-06-26T03:12:42;3.85;;;3.45;;
20476;SDS011;10397;50.948;11.092;2023-06-26T03:15:14;8.98;;;3.45;;
20476;SDS011;10397;50.948;11.092;2023-06-26T03:17:45;3.60;;;3.30;;
20476;SDS011;10397;50.948;11.092;2023-06-26T03:20:16;3.40;;;3.10;;
20476;SDS011;10397;50.948;11.092;2023-06-26T03:22:47;5.40;;;3.43;;
20476;SDS011;10397;50.948;11.092;2023-06-26T03:25:18;4.03;;;3.30;;
20476;SDS011;10397;50.948;11.092;2023-06-26T03:27:49;4.03;;;3.60;;
20476;SDS011;10397;50.948;11.092;2023-06-26T03:30:20;3.95;;;3.65;;
20476;SDS011;10397;50.948;11.092;2023-06-26T03:32:52;7.27;;;4.10;;
20476;SDS011;10397;50.948;11.092;2023-06-26T03:35:23;5.83;;;3.90;;
20476;SDS011;10397;50.948;11.092;2023-06-26T03:37:55;4.03;;;3.47;;
20476;SDS011;10397;50.948;11.092;2023-06-26T03:40:26;3.72;;;3.30;;
20476;SDS011;10397;50.948;11.092;2023-06-26T03:42:58;5.05;;;4.15;;
20476;SDS011;10397;50.948;11.092;2023-06-26T03:45:29;4.17;;;3.80;;
20476;SDS011;10397;50.948;11.092;2023-06-26T03:48:00;5.10;;;3.60;;
20476;SDS011;10397;50.948;11.092;2023-06-26T03:50:31;3.90;;;3.60;;
20476;SDS011;10397;50.948;11.092;2023-06-26T03:53:03;3.50;;;3.20;;
20476;SDS011;10397;50.948;11.092;2023-06-26T03:55:34;7.77;;;4.07;;
20476;SDS011;10397;50.948;11.092;2023-06-26T03:58:05;3.83;;;3.22;;
20476;SDS011;10397;50.948;11.092;2023-06-26T04:00:37;3.98;;;3.67;;
20476;SDS011;10397;50.948;11.092;2023-06-26T04:03:08;4.25;;;3.80;;
20476;SDS011;10397;50.948;11.092;2023-06-26T04:05:40;4.08;;;3.62;;
20476;SDS011;10397;50.948;11.092;2023-06-26T04:08:12;4.83;;;3.92;;
20476;SDS011;10397;50.948;11.092;2023-06-26T04:10:43;4.92;;;3.87;;
20476;SDS011;10397;50.948;11.092;2023-06-26T04:13:14;5.00;;;3.42;;
20476;SDS011;10397;50.948;11.092;2023-06-26T04:15:45;5.28;;;3.62;;
20476;SDS011;10397;50.948;11.092;2023-06-26T04:18:17;4.25;;;3.85;;
20476;SDS011;10397;50.948;11.092;2023-06-26T04:21:09;5.92;;;3.67;;
20476;SDS011;10397;50.948;11.092;2023-06-26T04:23:40;5.90;;;3.77;;
20476;SDS011;10397;50.948;11.092;2023-06-26T04:26:11;4.05;;;3.58;;
20476;SDS011;10397;50.948;11.092;2023-06-26T04:28:42;4.37;;;3.98;;
20476;SDS011;10397;50.948;11.092;2023-06-26T04:31:12;3.60;;;3.30;;
20476;SDS011;10397;50.948;11.092;2023-06-26T04:33:44;4.50;;;3.60;;
20476;SDS011;10397;50.948;11.092;2023-06-26T04:36:15;7.15;;;3.30;;
20476;SDS011;10397;50.948;11.092;2023-06-26T04:38:46;4.13;;;3.47;;
20476;SDS011;10397;50.948;11.092;2023-06-26T04:41:17;3.83;;;3.52;;
20476;SDS011;10397;50.948;11.092;2023-06-26T04:43:48;4.27;;;3.80;;
20476;SDS011;10397;50.948;11.092;2023-06-26T04:46:19;5.80;;;3.85;;
20476;SDS011;10397;50.948;11.092;2023-06-26T04:48:51;5.92;;;3.90;;
20476;SDS011;10397;50.948;11.092;2023-06-26T04:51:23;5.83;;;4.25;;
20476;SDS011;10397;50.948;11.092;2023-06-26T04:53:53;4.53;;;4.07;;
20476;SDS011;10397;50.948;11.092;2023-06-26T04:56:24;3.83;;;3.43;;
20476;SDS011;10397;50.948;11.092;2023-06-26T04:58:55;5.50;;;4.73;;
20476;SDS011;10397;50.948;11.092;2023-06-26T05:01:26;6.30;;;3.70;;
20476;SDS011;10397;50.948;11.092;2023-06-26T05:03:58;5.37;;;4.22;;
20476;SDS011;10397;50.948;11.092;2023-06-26T05:06:30;3.80;;;3.10;;
20476;SDS011;10397;50.948;11.092;2023-06-26T05:09:02;8.38;;;3.67;;
20476;SDS011;10397;50.948;11.092;2023-06-26T05:11:33;4.00;;;3.70;;
20476;SDS011;10397;50.948;11.092;2023-06-26T05:14:05;4.42;;;3.58;;
20476;SDS011;10397;50.948;11.092;2023-06-26T05:16:35;4.37;;;3.97;;
20476;SDS011;10397;50.948;11.092;2023-06-26T05:19:07;5.40;;;4.28;;
20476;SDS011;10397;50.948;11.092;2023-06-26T05:21:39;4.53;;;4.12;;
20476;SDS011;10397;50.948;11.092;2023-06-26T05:24:10;4.42;;;4.00;;
20476;SDS011;10397;50.948;11.092;2023-06-26T05:26:41;4.25;;;3.85;;
20476;SDS011;10397;50.948;11.092;2023-06-26T05:29:13;4.08;;;3.67;;
20476;SDS011;10397;50.948;11.092;2023-06-26T05:31:44;4.28;;;3.85;;
20476;SDS011;10397;50.948;11.092;2023-06-26T05:34:15;4.70;;;3.70;;
20476;SDS011;10397;50.948;11.092;2023-06-26T05:36:46;6.60;;;3.40;;
20476;SDS011;10397;50.948;11.092;2023-06-26T05:39:17;3.47;;;3.17;;
20476;SDS011;10397;50.948;11.092;2023-06-26T05:41:48;6.20;;;3.40;;
20476;SDS011;10397;50.948;11.092;2023-06-26T05:44:19;8.40;;;3.65;;
20476;SDS011;10397;50.948;11.092;2023-06-26T05:46:51;4.10;;;3.70;;
20476;SDS011;10397;50.948;11.092;2023-06-26T05:49:22;6.07;;;3.93;;
20476;SDS011;10397;50.948;11.092;2023-06-26T05:51:53;4.43;;;3.63;;
20476;SDS011;10397;50.948;11.092;2023-06-26T05:54:24;3.85;;;3.42;;
20476;SDS011;10397;50.948;11.092;2023-06-26T05:56:56;4.00;;;3.60;;
20476;SDS011;10397;50.948;11.092;2023-06-26T05:59:26;3.40;;;3.10;;
20476;SDS011;10397;50.948;11.092;2023-06-26T06:01:57;4.72;;;3.30;;
20476;SDS011;10397;50.948;11.092;2023-06-26T06:04:28;4.08;;;3.33;;
20476;SDS011;10397;50.948;11.092;2023-06-26T06:07:00;5.85;;;3.60;;
20476;SDS011;10397;50.948;11.092;2023-06-26T06:09:31;4.03;;;3.72;;
20476;SDS011;10397;50.948;11.092;2023-06-26T06:12:03;7.20;;;3.58;;
20476;SDS011;10397;50.948;11.092;2023-06-26T06:14:34;4.20;;;3.80;;
20476;SDS011;10397;50.948;11.092;2023-06-26T06:17:05;3.85;;;3.10;;
20476;SDS011;10397;50.948;11.092;2023-06-26T06:19:37;3.87;;;3.52;;
20476;SDS011;10397;50.948;11.092;2023-06-26T06:22:08;5.50;;;3.37;;
20476;SDS011;10397;50.948;11.092;2023-06-26T06:24:39;3.30;;;3.00;;
20476;SDS011;10397;50.948;11.092;2023-06-26T06:27:10;3.77;;;3.47;;
20476;SDS011;10397;50.948;11.092;2023-06-26T06:29:42;3.77;;;3.35;;
20476;SDS011;10397;50.948;11.092;2023-06-26T06:32:13;4.33;;;3.40;;
20476;SDS011;10397;50.948;11.092;2023-06-26T06:34:44;4.10;;;3.70;;
20476;SDS011;10397;50.948;11.092;2023-06-26T06:37:16;3.35;;;3.05;;
20476;SDS011;10397;50.948;11.092;2023-06-26T06:39:48;3.95;;;3.55;;
20476;SDS011;10397;50.948;11.092;2023-06-26T06:42:19;5.12;;;3.17;;
20476;SDS011;10397;50.948;11.092;2023-06-26T06:44:50;3.87;;;3.57;;
20476;SDS011;10397;50.948;11.092;2023-06-26T06:47:21;5.23;;;3.73;;
20476;SDS011;10397;50.948;11.092;2023-06-26T06:49:52;4.27;;;3.87;;
20476;SDS011;10397;50.948;11.092;2023-06-26T06:52:24;5.08;;;3.45;;
20476;SDS011;10397;50.948;11.092;2023-06-26T06:54:55;7.03;;;3.67;;
20476;SDS011;10397;50.948;11.092;2023-06-26T06:57:26;7.55;;;3.20;;
20476;SDS011;10397;50.948;11.092;2023-06-26T06:59:57;4.10;;;3.70;;
20476;SDS011;10397;50.948;11.092;2023-06-26T07:02:29;4.97;;;3.87;;
20476;SDS011;10397;50.948;11.092;2023-06-26T07:05:00;5.97;;;3.33;;
20476;SDS011;10397;50.948;11.092;2023-06-26T07:07:32;4.94;;;3.50;;
20476;SDS011;10397;50.948;11.092;2023-06-26T07:10:06;4.90;;;3.20;;
20476;SDS011;10397;50.948;11.092;2023-06-26T07:12:38;3.77;;;3.47;;
20476;SDS011;10397;50.948;11.092;2023-06-26T07:15:09;6.47;;;2.87;;
20476;SDS011;10397;50.948;11.092;2023-06-26T07:17:40;3.90;;;3.35;;
20476;SDS011;10397;50.948;11.092;2023-06-26T07:20:11;5.00;;;3.50;;
20476;SDS011;10397;50.948;11.092;2023-06-26T07:22:42;3.60;;;3.30;;
20476;SDS011;10397;50.948;11.092;2023-06-26T07:25:12;3.87;;;3.57;;
20476;SDS011;10397;50.948;11.092;2023-06-26T07:27:43;6.10;;;3.42;;
20476;SDS011;10397;50.948;11.092;2023-06-26T07:30:15;7.50;;;4.08;;
20476;SDS011;10397;50.948;11.092;2023-06-26T07:32:46;3.50;;;3.20;;
20476;SDS011;10397;50.948;11.092;2023-06-26T07:35:18;3.75;;;3.45;;
20476;SDS011;10397;50.948;11.092;2023-06-26T07:37:49;3.57;;;3.27;;
20476;SDS011;10397;50.948;11.092;2023-06-26T07:40:21;3.98;;;3.67;;
20476;SDS011;10397;50.948;11.092;2023-06-26T07:42:52;3.98;;;3.58;;
20476;SDS011;10397;50.948;11.092;2023-06-26T07:45:23;4.95;;;3.75;;
20476;SDS011;10397;50.948;11.092;2023-06-26T07:47:54;3.80;;;3.50;;
20476;SDS011;10397;50.948;11.092;2023-06-26T07:50:26;4.00;;;3.00;;
20476;SDS011;10397;50.948;11.092;2023-06-26T07:52:58;5.25;;;3.40;;
20476;SDS011;10397;50.948;11.092;2023-06-26T07:55:29;3.37;;;3.17;;
20476;SDS011;10397;50.948;11.092;2023-06-26T07:58:00;3.90;;;3.60;;
20476;SDS011;10397;50.948;11.092;2023-06-26T08:00:31;4.13;;;3.83;;
20476;SDS011;10397;50.948;11.092;2023-06-26T08:03:03;3.92;;;3.62;;
20476;SDS011;10397;50.948;11.092;2023-06-26T08:05:34;4.15;;;3.85;;
20476;SDS011;10397;50.948;11.092;2023-06-26T08:08:06;5.28;;;3.37;;
20476;SDS011;10397;50.948;11.092;2023-06-26T08:10:37;3.83;;;3.52;;
20476;SDS011;10397;50.948;11.092;2023-06-26T08:13:08;5.70;;;4.20;;
20476;SDS011;10397;50.948;11.092;2023-06-26T08:15:39;4.08;;;3.50;;
20476;SDS011;10397;50.948;11.092;2023-06-26T08:18:11;4.08;;;3.42;;
20476;SDS011;10397;50.948;11.092;2023-06-26T08:20:43;4.28;;;3.98;;
20476;SDS011;10397;50.948;11.092;2023-06-26T08:23:14;7.45;;;3.40;;
20476;SDS011;10397;50.948;11.092;2023-06-26T08:25:46;4.60;;;3.85;;
20476;SDS011;10397;50.948;11.092;2023-06-26T08:28:17;4.42;;;3.40;;
20476;SDS011;10397;50.948;11.092;2023-06-26T08:30:49;4.65;;;3.25;;
20476;SDS011;10397;50.948;11.092;2023-06-26T08:33:21;3.90;;;3.50;;
20476;SDS011;10397;50.948;11.092;2023-06-26T08:35:52;3.72;;;3.42;;
20476;SDS011;10397;50.948;11.092;2023-06-26T08:38:24;6.80;;;3.47;;
20476;SDS011;10397;50.948;11.092;2023-06-26T08:40:56;4.62;;;4.20;;
20476;SDS011;10397;50.948;11.092;2023-06-26T08:43:28;3.92;;;3.62;;
20476;SDS011;10397;50.948;11.092;2023-06-26T08:45:59;3.92;;;3.50;;
20476;SDS011;10397;50.948;11.092;2023-06-26T08:48:34;5.00;;;3.50;;
20476;SDS011;10397;50.948;11.092;2023-06-26T08:51:01;3.87;;;3.57;;
20476;SDS011;10397;50.948;11.092;2023-06-26T08:56:27;4.50;;;4.10;;
20476;SDS011;10397;50.948;11.092;2023-06-26T08:58:58;4.00;;;3.70;;
20476;SDS011;10397;50.948;11.092;2023-06-26T09:01:28;4.17;;;3.50;;
20476;SDS011;10397;50.948;11.092;2023-06-26T09:04:00;3.75;;;3.02;;
20476;SDS011;10397;50.948;11.092;2023-06-26T09:06:31;4.20;;;3.90;;
20476;SDS011;10397;50.948;11.092;2023-06-26T09:09:02;4.10;;;3.80;;
20476;SDS011;10397;50.948;11.092;2023-06-26T09:11:34;3.75;;;3.35;;
20476;SDS011;10397;50.948;11.092;2023-06-26T09:14:06;4.00;;;3.60;;
20476;SDS011;10397;50.948;11.092;2023-06-26T09:16:40;4.20;;;3.90;;
20476;SDS011;10397;50.948;11.092;2023-06-26T09:19:11;3.53;;;3.23;;
20476;SDS011;10397;50.948;11.092;2023-06-26T09:21:42;6.70;;;3.72;;
20476;SDS011;10397;50.948;11.092;2023-06-26T09:24:14;4.67;;;3.40;;
20476;SDS011;10397;50.948;11.092;2023-06-26T09:26:45;4.08;;;3.77;;
20476;SDS011;10397;50.948;11.092;2023-06-26T09:29:17;4.33;;;3.90;;
20476;SDS011;10397;50.948;11.092;2023-06-26T09:31:47;3.53;;;3.23;;
20476;SDS011;10397;50.948;11.092;2023-06-26T09:34:18;4.97;;;4.17;;
20476;SDS011;10397;50.948;11.092;2023-06-26T09:36:52;4.95;;;4.20;;
20476;SDS011;10397;50.948;11.092;2023-06-26T09:39:20;12.63;;;4.50;;
20476;SDS011;10397;50.948;11.092;2023-06-26T09:41:52;5.33;;;3.98;;
20476;SDS011;10397;50.948;11.092;2023-06-26T09:44:23;4.80;;;3.62;;
20476;SDS011;10397;50.948;11.092;2023-06-26T09:46:54;4.25;;;3.85;;
20476;SDS011;10397;50.948;11.092;2023-06-26T09:49:26;5.25;;;3.72;;
20476;SDS011;10397;50.948;11.092;2023-06-26T09:51:57;3.72;;;3.42;;
20476;SDS011;10397;50.948;11.092;2023-06-26T09:54:28;5.85;;;4.30;;
20476;SDS011;10397;50.948;11.092;2023-06-26T09:57:09;4.03;;;3.72;;
20476;SDS011;10397;50.948;11.092;2023-06-26T09:59:43;4.40;;;4.10;;
20476;SDS011;10397;50.948;11.092;2023-06-26T10:02:14;4.03;;;3.72;;
20476;SDS011;10397;50.948;11.092;2023-06-26T10:04:45;4.62;;;4.22;;
20476;SDS011;10397;50.948;11.092;2023-06-26T10:07:16;4.45;;;4.12;;
20476;SDS011;10397;50.948;11.092;2023-06-26T10:09:47;3.77;;;3.58;;
20476;SDS011;10397;50.948;11.092;2023-06-26T10:12:25;4.03;;;3.72;;
20476;SDS011;10397;50.948;11.092;2023-06-26T10:14:52;3.97;;;3.67;;
20476;SDS011;10397;50.948;11.092;2023-06-26T10:17:24;4.05;;;3.75;;
20476;SDS011;10397;50.948;11.092;2023-06-26T10:19:55;6.33;;;3.75;;
20476;SDS011;10397;50.948;11.092;2023-06-26T10:22:27;4.33;;;3.92;;
20476;SDS011;10397;50.948;11.092;2023-06-26T10:24:58;3.80;;;3.47;;
20476;SDS011;10397;50.948;11.092;2023-06-26T10:27:30;5.30;;;4.23;;
20476;SDS011;10397;50.948;11.092;2023-06-26T10:30:00;4.08;;;3.77;;
20476;SDS011;10397;50.948;11.092;2023-06-26T10:32:30;4.90;;;3.98;;
20476;SDS011;10397;50.948;11.092;2023-06-26T10:35:01;4.25;;;3.17;;
20476;SDS011;10397;50.948;11.092;2023-06-26T10:37:52;3.70;;;3.40;;
20476;SDS011;10397;50.948;11.092;2023-06-26T10:40:25;4.73;;;4.33;;
20476;SDS011;10397;50.948;11.092;2023-06-26T10:42:58;4.00;;;3.70;;
20476;SDS011;10397;50.948;11.092;2023-06-26T10:45:23;6.92;;;4.35;;
20476;SDS011;10397;50.948;11.092;2023-06-26T10:47:54;4.80;;;4.25;;
20476;SDS011;10397;50.948;11.092;2023-06-26T10:50:29;5.78;;;4.25;;
20476;SDS011;10397;50.948;11.092;2023-06-26T10:55:48;4.33;;;3.93;;
20476;SDS011;10397;50.948;11.092;2023-06-26T10:58:31;4.42;;;4.03;;
20476;SDS011;10397;50.948;11.092;2023-06-26T11:06:28;4.93;;;4.53;;
20476;SDS011;10397;50.948;11.092;2023-06-26T11:09:00;5.08;;;4.10;;
20476;SDS011;10397;50.948;11.092;2023-06-26T11:14:24;5.37;;;4.00;;
20476;SDS011;10397;50.948;11.092;2023-06-26T11:16:57;4.50;;;4.20;;
20476;SDS011;10397;50.948;11.092;2023-06-26T11:19:28;4.47;;;4.10;;
20476;SDS011;10397;50.948;11.092;2023-06-26T11:22:01;3.83;;;3.47;;
20476;SDS011;10397;50.948;11.092;2023-06-26T11:24:30;6.07;;;4.07;;
20476;SDS011;10397;50.948;11.092;2023-06-26T11:27:01;3.87;;;3.58;;
20476;SDS011;10397;50.948;11.092;2023-06-26T11:29:32;4.23;;;3.87;;
20476;SDS011;10397;50.948;11.092;2023-06-26T11:32:03;3.92;;;3.62;;
20476;SDS011;10397;50.948;11.092;2023-06-26T11:34:33;4.47;;;3.75;;
20476;SDS011;10397;50.948;11.092;2023-06-26T11:37:04;5.40;;;3.92;;
20476;SDS011;10397;50.948;11.092;2023-06-26T11:39:35;4.22;;;3.80;;
20476;SDS011;10397;50.948;11.092;2023-06-26T11:42:07;4.97;;;3.77;;
20476;SDS011;10397;50.948;11.092;2023-06-26T11:44:41;4.30;;;3.90;;
20476;SDS011;10397;50.948;11.092;2023-06-26T11:47:19;3.60;;;3.40;;
20476;SDS011;10397;50.948;11.092;2023-06-26T11:49:49;5.03;;;3.53;;
20476;SDS011;10397;50.948;11.092;2023-06-26T11:52:20;5.60;;;3.98;;
20476;SDS011;10397;50.948;11.092;2023-06-26T11:54:51;5.62;;;4.35;;
20476;SDS011;10397;50.948;11.092;2023-06-26T11:57:23;3.98;;;3.67;;
20476;SDS011;10397;50.948;11.092;2023-06-26T11:59:55;4.60;;;4.20;;
20476;SDS011;10397;50.948;11.092;2023-06-26T12:02:26;3.62;;;3.27;;
20476;SDS011;10397;50.948;11.092;2023-06-26T12:04:58;7.95;;;3.75;;
20476;SDS011;10397;50.948;11.092;2023-06-26T12:07:29;5.07;;;4.63;;
20476;SDS011;10397;50.948;11.092;2023-06-26T12:10:00;4.47;;;4.05;;
20476;SDS011;10397;50.948;11.092;2023-06-26T12:12:31;9.58;;;4.25;;
20476;SDS011;10397;50.948;11.092;2023-06-26T12:15:03;5.83;;;4.25;;
20476;SDS011;10397;50.948;11.092;2023-06-26T12:17:36;6.28;;;4.30;;
20476;SDS011;10397;50.948;11.092;2023-06-26T12:20:05;5.20;;;4.35;;
20476;SDS011;10397;50.948;11.092;2023-06-26T12:22:36;4.92;;;4.47;;
20476;SDS011;10397;50.948;11.092;2023-06-26T12:25:08;4.35;;;4.05;;
20476;SDS011;10397;50.948;11.092;2023-06-26T12:27:39;7.35;;;4.47;;
20476;SDS011;10397;50.948;11.092;2023-06-26T12:30:11;4.95;;;4.35;;
20476;SDS011;10397;50.948;11.092;2023-06-26T12:32:45;5.37;;;3.90;;
20476;SDS011;10397;50.948;11.092;2023-06-26T12:35:16;6.20;;;3.90;;
20476;SDS011;10397;50.948;11.092;2023-06-26T12:37:47;3.98;;;3.67;;
20476;SDS011;10397;50.948;11.092;2023-06-26T12:40:19;4.60;;;4.20;;
20476;SDS011;10397;50.948;11.092;2023-06-26T12:42:52;4.40;;;3.63;;
20476;SDS011;10397;50.948;11.092;2023-06-26T12:45:23;4.50;;;4.10;;
20476;SDS011;10397;50.948;11.092;2023-06-26T12:47:55;4.75;;;4.25;;
20476;SDS011;10397;50.948;11.092;2023-06-26T12:50:26;6.70;;;4.42;;
20476;SDS011;10397;50.948;11.092;2023-06-26T12:52:58;16.42;;;4.70;;
20476;SDS011;10397;50.948;11.092;2023-06-26T12:55:29;4.77;;;4.43;;
20476;SDS011;10397;50.948;11.092;2023-06-26T12:58:01;6.65;;;4.22;;
20476;SDS011;10397;50.948;11.092;2023-06-26T13:00:33;4.37;;;3.95;;
20476;SDS011;10397;50.948;11.092;2023-06-26T13:03:04;4.60;;;4.00;;
20476;SDS011;10397;50.948;11.092;2023-06-26T13:05:36;7.90;;;4.45;;
20476;SDS011;10397;50.948;11.092;2023-06-26T13:08:07;10.00;;;4.05;;
20476;SDS011;10397;50.948;11.092;2023-06-26T13:10:39;9.05;;;4.60;;
20476;SDS011;10397;50.948;11.092;2023-06-26T13:13:11;4.62;;;4.22;;
20476;SDS011;10397;50.948;11.092;2023-06-26T13:15:42;7.58;;;4.20;;
20476;SDS011;10397;50.948;11.092;2023-06-26T13:18:14;5.42;;;3.42;;
20476;SDS011;10397;50.948;11.092;2023-06-26T13:20:45;17.10;;;4.40;;
20476;SDS011;10397;50.948;11.092;2023-06-26T13:23:17;9.83;;;4.78;;
20476;SDS011;10397;50.948;11.092;2023-06-26T13:25:48;12.18;;;5.65;;
20476;SDS011;10397;50.948;11.092;2023-06-26T13:28:20;6.42;;;4.60;;
20476;SDS011;10397;50.948;11.092;2023-06-26T13:30:51;7.62;;;4.97;;
20476;SDS011;10397;50.948;11.092;2023-06-26T13:33:23;7.42;;;4.97;;
20476;SDS011;10397;50.948;11.092;2023-06-26T13:35:54;4.97;;;4.55;;
20476;SDS011;10397;50.948;11.092;2023-06-26T13:38:25;8.98;;;4.70;;
20476;SDS011;10397;50.948;11.092;2023-06-26T13:40:57;9.03;;;4.17;;
20476;SDS011;10397;50.948;11.092;2023-06-26T13:43:31;5.43;;;4.93;;
20476;SDS011;10397;50.948;11.092;2023-06-26T13:46:03;10.48;;;4.12;;
20476;SDS011;10397;50.948;11.092;2023-06-26T13:48:34;12.45;;;4.85;;
20476;SDS011;10397;50.948;11.092;2023-06-26T13:51:06;9.50;;;4.58;;
20476;SDS011;10397;50.948;11.092;2023-06-26T13:53:38;4.47;;;4.12;;
20476;SDS011;10397;50.948;11.092;2023-06-26T13:56:09;7.53;;;4.62;;
20476;SDS011;10397;50.948;11.092;2023-06-26T13:58:40;5.83;;;4.97;;
20476;SDS011;10397;50.948;11.092;2023-06-26T14:01:12;6.10;;;4.60;;
20476;SDS011;10397;50.948;11.092;2023-06-26T14:03:44;4.50;;;4.10;;
20476;SDS011;10397;50.948;11.092;2023-06-26T14:06:15;5.58;;;4.00;;
20476;SDS011;10397;50.948;11.092;2023-06-26T14:08:47;4.95;;;4.47;;
20476;SDS011;10397;50.948;11.092;2023-06-26T14:11:19;5.80;;;5.25;;
20476;SDS011;10397;50.948;11.092;2023-06-26T14:13:50;6.80;;;5.00;;
20476;SDS011;10397;50.948;11.092;2023-06-26T14:16:21;6.03;;;4.87;;
20476;SDS011;10397;50.948;11.092;2023-06-26T14:18:53;6.05;;;5.20;;
20476;SDS011;10397;50.948;11.092;2023-06-26T14:21:24;9.80;;;4.75;;
20476;SDS011;10397;50.948;11.092;2023-06-26T14:23:55;7.43;;;4.63;;
20476;SDS011;10397;50.948;11.092;2023-06-26T14:26:26;9.23;;;5.45;;
20476;SDS011;10397;50.948;11.092;2023-06-26T14:28:58;6.90;;;5.75;;
20476;SDS011;10397;50.948;11.092;2023-06-26T14:31:29;7.13;;;5.93;;
20476;SDS011;10397;50.948;11.092;2023-06-26T14:34:00;6.72;;;6.03;;
20476;SDS011;10397;50.948;11.092;2023-06-26T14:36:31;7.03;;;5.70;;
20476;SDS011;10397;50.948;11.092;2023-06-26T14:39:03;8.73;;;6.10;;
20476;SDS011;10397;50.948;11.092;2023-06-26T14:41:34;9.53;;;6.47;;
20476;SDS011;10397;50.948;11.092;2023-06-26T14:44:06;6.97;;;6.37;;
20476;SDS011;10397;50.948;11.092;2023-06-26T14:46:37;10.80;;;6.90;;
20476;SDS011;10397;50.948;11.092;2023-06-26T14:49:08;8.85;;;6.47;;
20476;SDS011;10397;50.948;11.092;2023-06-26T14:51:40;8.98;;;7.00;;
20476;SDS011;10397;50.948;11.092;2023-06-26T14:54:11;9.45;;;6.85;;
20476;SDS011;10397;50.948;11.092;2023-06-26T14:56:43;10.32;;;7.75;;
20476;SDS011;10397;50.948;11.092;2023-06-26T14:59:14;9.33;;;7.60;;
20476;SDS011;10397;50.948;11.092;2023-06-26T15:01:46;12.60;;;7.85;;
20476;SDS011;10397;50.948;11.092;2023-06-26T15:04:17;7.65;;;6.95;;
20476;SDS011;10397;50.948;11.092;2023-06-26T15:06:49;8.80;;;6.87;;
20476;SDS011;10397;50.948;11.092;2023-06-26T15:09:20;9.73;;;6.72;;
20476;SDS011;10397;50.948;11.092;2023-06-26T15:11:52;9.00;;;7.03;;
20476;SDS011;10397;50.948;11.092;2023-06-26T15:14:24;9.03;;;7.10;;
20476;SDS011;10397;50.948;11.092;2023-06-26T15:16:56;8.80;;;6.85;;
20476;SDS011;10397;50.948;11.092;2023-06-26T15:19:27;7.62;;;6.53;;